createdAt,value
2022-12-31T00:02:17.390Z,0.50
2022-12-31T00:04:44.619Z,0.57
2022-12-31T00:07:11.523Z,0.70
2022-12-31T00:09:38.876Z,0.50
2022-12-31T00:12:06.025Z,0.70
2022-12-31T00:14:32.969Z,0.60
2022-12-31T00:16:59.983Z,0.70
2022-12-31T00:19:27.125Z,0.60
2022-12-31T00:21:54.075Z,0.55
2022-12-31T00:24:21.083Z,0.50
2022-12-31T00:26:48.066Z,0.60
2022-12-31T00:29:15.042Z,0.90
2022-12-31T00:31:42.073Z,0.52
2022-12-31T00:34:10.116Z,0.50
2022-12-31T00:36:39.155Z,0.90
2022-12-31T00:39:08.365Z,0.80
2022-12-31T00:41:35.779Z,0.50
2022-12-31T00:44:03.437Z,0.50
2022-12-31T00:46:31.775Z,0.45
2022-12-31T00:48:58.997Z,0.57
2022-12-31T00:51:28.898Z,0.50
2022-12-31T00:53:56.907Z,0.50
2022-12-31T00:56:27.261Z,0.70
2022-12-31T00:58:54.834Z,0.63
2022-12-31T01:01:23.070Z,0.70
2022-12-31T01:03:52.668Z,0.80
2022-12-31T01:06:20.558Z,0.80
2022-12-31T01:08:51.838Z,0.65
2022-12-31T01:11:19.269Z,0.80
2022-12-31T01:13:49.676Z,1.08
2022-12-31T01:16:17.938Z,0.93
2022-12-31T01:18:45.171Z,0.90
2022-12-31T01:21:13.517Z,0.80
2022-12-31T01:23:40.989Z,1.10
2022-12-31T01:26:10.862Z,1.00
2022-12-31T01:28:38.245Z,0.90
2022-12-31T01:31:15.107Z,0.80
2022-12-31T01:33:43.260Z,1.20
2022-12-31T01:36:25.224Z,0.65
2022-12-31T01:38:54.193Z,1.00
2022-12-31T01:41:24.515Z,0.95
2022-12-31T01:43:57.481Z,1.30
2022-12-31T01:46:32.682Z,1.00
2022-12-31T01:49:10.927Z,1.05
2022-12-31T01:51:39.673Z,1.40
2022-12-31T01:54:09.469Z,1.10
2022-12-31T01:56:38.776Z,1.08
2022-12-31T01:59:10.146Z,1.20
2022-12-31T02:01:38.520Z,1.77
2022-12-31T02:04:09.770Z,1.10
2022-12-31T02:07:09.063Z,1.20
2022-12-31T02:09:41.875Z,1.42
2022-12-31T02:12:10.443Z,1.20
2022-12-31T02:14:41.902Z,1.35
2022-12-31T02:17:37.878Z,2.03
2022-12-31T02:20:13.761Z,1.50
2022-12-31T02:23:21.645Z,1.80
2022-12-31T02:26:19.116Z,1.50
2022-12-31T02:29:04.761Z,1.50
2022-12-31T02:31:41.902Z,1.30
2022-12-31T02:34:19.388Z,1.20
2022-12-31T02:36:48.071Z,1.45
2022-12-31T02:39:15.223Z,1.70
2022-12-31T02:41:51.452Z,1.58
2022-12-31T02:44:24.452Z,1.45
2022-12-31T02:47:00.755Z,1.50
2022-12-31T02:49:56.947Z,1.88
2022-12-31T02:52:45.596Z,1.35
2022-12-31T02:55:41.350Z,1.17
2022-12-31T02:58:47.138Z,1.00
2022-12-31T03:01:39.323Z,1.00
2022-12-31T03:04:25.166Z,1.10
2022-12-31T03:06:53.434Z,1.10
2022-12-31T03:09:20.517Z,0.90
2022-12-31T03:12:06.205Z,1.10
2022-12-31T03:14:33.218Z,0.90
2022-12-31T03:17:00.188Z,1.00
2022-12-31T03:19:45.706Z,0.80
2022-12-31T03:22:28.834Z,1.00
2022-12-31T03:25:21.654Z,0.98
2022-12-31T03:27:49.822Z,0.73
2022-12-31T03:30:18.907Z,0.95
2022-12-31T03:32:47.154Z,0.60
2022-12-31T03:35:15.967Z,0.98
2022-12-31T03:37:43.648Z,0.80
2022-12-31T03:40:12.449Z,0.85
2022-12-31T03:42:39.769Z,0.77
2022-12-31T03:45:07.425Z,0.65
2022-12-31T03:47:34.605Z,0.80
2022-12-31T03:50:01.760Z,0.75
2022-12-31T03:52:28.775Z,0.60
2022-12-31T03:54:55.737Z,0.50
2022-12-31T03:57:23.766Z,0.60
2022-12-31T03:59:50.816Z,0.90
2022-12-31T04:02:20.000Z,1.02
2022-12-31T04:04:50.230Z,0.60
2022-12-31T04:07:17.531Z,0.93
2022-12-31T04:09:44.683Z,0.80
2022-12-31T04:12:11.652Z,0.88
2022-12-31T04:14:38.707Z,0.88
2022-12-31T04:17:05.704Z,0.80
2022-12-31T04:19:33.029Z,0.90
2022-12-31T04:21:59.990Z,0.80
2022-12-31T04:24:28.139Z,0.90
2022-12-31T04:26:55.075Z,0.65
2022-12-31T04:29:22.341Z,0.60
2022-12-31T04:31:49.396Z,0.70
2022-12-31T04:34:16.590Z,0.98
2022-12-31T04:36:43.496Z,0.80
2022-12-31T04:39:10.564Z,0.60
2022-12-31T04:41:37.508Z,0.70
2022-12-31T04:44:04.580Z,0.60
2022-12-31T04:46:33.213Z,0.68
2022-12-31T04:49:00.897Z,0.60
2022-12-31T04:51:29.328Z,0.60
2022-12-31T04:53:56.836Z,1.00
2022-12-31T04:56:24.414Z,0.90
2022-12-31T04:58:51.478Z,0.90
2022-12-31T05:01:18.588Z,1.02
2022-12-31T05:03:45.915Z,0.82
2022-12-31T05:06:18.476Z,1.15
2022-12-31T05:08:46.146Z,0.77
2022-12-31T05:11:13.571Z,0.88
2022-12-31T05:13:40.777Z,1.10
2022-12-31T05:16:08.509Z,1.10
2022-12-31T05:18:36.060Z,1.27
2022-12-31T05:21:03.648Z,0.90
2022-12-31T05:23:30.702Z,1.58
2022-12-31T05:25:59.673Z,1.20
2022-12-31T05:28:26.817Z,1.35
2022-12-31T05:30:53.814Z,1.95
2022-12-31T05:33:21.336Z,1.30
2022-12-31T05:35:48.588Z,1.30
2022-12-31T05:38:15.773Z,1.75
2022-12-31T05:40:42.709Z,1.65
2022-12-31T05:43:09.810Z,1.33
2022-12-31T05:45:37.210Z,1.27
2022-12-31T05:48:04.380Z,1.23
2022-12-31T05:50:31.489Z,1.25
2022-12-31T05:53:04.137Z,1.38
2022-12-31T05:55:31.226Z,1.73
2022-12-31T05:57:58.481Z,1.67
2022-12-31T06:00:25.501Z,1.05
2022-12-31T06:02:52.518Z,2.22
2022-12-31T06:05:25.719Z,1.00
2022-12-31T06:07:53.248Z,1.48
2022-12-31T06:10:20.191Z,1.65
2022-12-31T06:12:47.223Z,1.30
2022-12-31T06:15:14.205Z,1.42
2022-12-31T06:17:41.192Z,1.50
2022-12-31T06:20:12.696Z,1.42
2022-12-31T06:22:40.389Z,1.20
2022-12-31T06:25:07.653Z,1.13
2022-12-31T06:27:34.638Z,1.20
2022-12-31T06:30:01.650Z,1.10
2022-12-31T06:32:28.663Z,1.10
2022-12-31T06:34:55.573Z,1.30
2022-12-31T06:37:22.594Z,1.42
2022-12-31T06:39:49.514Z,1.42
2022-12-31T06:42:16.497Z,1.25
2022-12-31T06:44:43.451Z,1.40
2022-12-31T06:47:10.434Z,1.40
2022-12-31T06:49:37.357Z,1.00
2022-12-31T06:52:04.544Z,1.27
2022-12-31T06:54:31.589Z,1.02
2022-12-31T06:57:00.267Z,1.48
2022-12-31T06:59:29.528Z,1.15
2022-12-31T07:02:11.481Z,1.48
2022-12-31T07:04:47.664Z,1.70
2022-12-31T07:07:32.713Z,1.30
2022-12-31T07:10:15.085Z,1.42
2022-12-31T07:13:15.851Z,1.20
2022-12-31T07:16:30.575Z,1.05
2022-12-31T07:19:03.361Z,1.83
2022-12-31T07:21:37.100Z,1.50
2022-12-31T07:24:07.031Z,1.40
2022-12-31T07:26:56.777Z,1.60
2022-12-31T07:29:42.632Z,1.58
2022-12-31T07:32:34.171Z,1.23
2022-12-31T07:35:21.605Z,1.30
2022-12-31T07:37:51.568Z,1.35
2022-12-31T07:40:23.145Z,1.23
2022-12-31T07:42:52.873Z,1.42
2022-12-31T07:46:04.344Z,1.73
2022-12-31T07:48:31.528Z,1.52
2022-12-31T07:50:59.058Z,1.70
2022-12-31T07:53:27.001Z,1.60
2022-12-31T07:56:00.125Z,2.00
2022-12-31T07:58:48.316Z,1.70
2022-12-31T08:01:19.975Z,1.75
2022-12-31T08:03:53.137Z,1.80
2022-12-31T08:07:01.118Z,1.80
2022-12-31T08:09:31.021Z,1.90
2022-12-31T08:12:00.550Z,1.50
2022-12-31T08:14:29.014Z,1.70
2022-12-31T08:16:57.365Z,1.75
2022-12-31T08:19:32.466Z,1.80
2022-12-31T08:22:10.882Z,1.50
2022-12-31T08:25:07.728Z,2.00
2022-12-31T08:28:01.743Z,1.58
2022-12-31T08:30:44.690Z,1.88
2022-12-31T08:33:15.696Z,1.70
2022-12-31T08:36:04.075Z,1.63
2022-12-31T08:38:36.645Z,1.42
2022-12-31T08:41:31.788Z,1.88
2022-12-31T08:44:16.922Z,1.67
2022-12-31T08:46:45.010Z,1.77
2022-12-31T08:49:12.679Z,1.70
2022-12-31T08:51:40.067Z,1.70
2022-12-31T08:54:10.095Z,1.88
2022-12-31T08:56:58.621Z,1.70
2022-12-31T08:59:51.761Z,1.80
2022-12-31T09:02:30.503Z,1.70
2022-12-31T09:05:26.233Z,1.90
2022-12-31T09:07:56.196Z,2.25
2022-12-31T09:10:47.933Z,2.08
2022-12-31T09:13:42.632Z,1.88
2022-12-31T09:16:36.073Z,2.10
2022-12-31T09:19:03.128Z,2.40
2022-12-31T09:21:32.460Z,1.63
2022-12-31T09:24:03.133Z,2.28
2022-12-31T09:27:02.508Z,2.13
2022-12-31T09:29:52.162Z,1.75
2022-12-31T09:32:33.035Z,1.77
2022-12-31T09:35:07.518Z,2.58
2022-12-31T09:37:52.359Z,1.80
2022-12-31T09:40:48.014Z,2.30
2022-12-31T09:43:36.506Z,2.05
2022-12-31T09:46:28.380Z,1.90
2022-12-31T09:49:13.765Z,2.17
2022-12-31T09:52:02.064Z,1.85
2022-12-31T09:54:39.857Z,1.95
2022-12-31T09:57:39.752Z,1.73
2022-12-31T10:00:32.980Z,1.60
2022-12-31T10:03:39.993Z,1.80
2022-12-31T10:06:25.671Z,2.13
2022-12-31T10:09:21.430Z,2.92
2022-12-31T10:12:06.564Z,1.80
2022-12-31T10:14:48.636Z,2.20
2022-12-31T10:17:53.342Z,2.30
2022-12-31T10:20:31.042Z,2.25
2022-12-31T10:23:25.584Z,2.20
2022-12-31T10:28:38.248Z,2.40
2022-12-31T10:31:42.868Z,2.28
2022-12-31T10:34:14.290Z,2.35
2022-12-31T10:36:55.510Z,2.67
2022-12-31T10:39:53.080Z,2.80
2022-12-31T10:42:56.961Z,2.65
2022-12-31T10:45:26.924Z,2.38
2022-12-31T10:48:18.087Z,2.22
2022-12-31T10:51:10.914Z,1.92
2022-12-31T10:53:56.287Z,2.30
2022-12-31T10:57:01.191Z,2.30
2022-12-31T11:02:11.817Z,2.40
2022-12-31T11:04:57.796Z,2.38
2022-12-31T11:07:39.829Z,2.30
2022-12-31T11:10:31.857Z,2.60
2022-12-31T11:13:19.745Z,2.30
2022-12-31T11:16:10.261Z,2.30
2022-12-31T11:18:46.509Z,2.53
2022-12-31T11:21:28.721Z,2.83
2022-12-31T11:24:25.382Z,2.33
2022-12-31T11:27:38.977Z,2.70
2022-12-31T11:30:07.075Z,2.40
2022-12-31T11:32:52.401Z,2.60
2022-12-31T11:35:37.893Z,3.17
2022-12-31T11:38:32.062Z,3.10
2022-12-31T11:41:19.487Z,3.10
2022-12-31T11:43:46.869Z,3.75
2022-12-31T11:46:23.070Z,3.45
2022-12-31T11:49:01.860Z,3.03
2022-12-31T11:51:50.668Z,3.72
2022-12-31T11:54:36.783Z,3.25
2022-12-31T11:57:27.455Z,3.97
2022-12-31T12:00:02.069Z,3.03
2022-12-31T12:02:44.053Z,3.28
2022-12-31T12:05:16.793Z,3.55
2022-12-31T12:07:44.146Z,2.85
2022-12-31T12:10:33.786Z,3.40
2022-12-31T12:13:19.395Z,2.65
2022-12-31T12:15:50.487Z,3.08
2022-12-31T12:18:48.303Z,3.10
2022-12-31T12:21:20.070Z,3.47
2022-12-31T12:24:17.450Z,3.40
2022-12-31T12:26:45.576Z,3.25
2022-12-31T12:29:23.252Z,3.38
2022-12-31T12:32:16.270Z,3.28
2022-12-31T12:34:49.321Z,3.78
2022-12-31T12:37:37.446Z,3.55
2022-12-31T12:40:22.171Z,3.20
2022-12-31T12:42:51.216Z,3.67
2022-12-31T12:45:23.281Z,3.45
2022-12-31T12:47:56.242Z,3.55
2022-12-31T12:50:32.473Z,3.47
2022-12-31T12:53:35.149Z,3.13
2022-12-31T12:56:25.273Z,3.63
2022-12-31T12:59:19.622Z,3.53
2022-12-31T13:01:52.658Z,3.38
2022-12-31T13:04:35.013Z,3.13
2022-12-31T13:07:21.097Z,3.33
2022-12-31T13:09:48.065Z,3.05
2022-12-31T13:12:25.659Z,3.67
2022-12-31T13:15:12.097Z,2.40
2022-12-31T13:18:02.637Z,3.35
2022-12-31T13:20:41.285Z,2.90
2022-12-31T13:23:26.568Z,3.08
2022-12-31T13:26:08.696Z,3.15
2022-12-31T13:28:39.082Z,2.80
2022-12-31T13:31:12.652Z,3.15
2022-12-31T13:33:48.209Z,3.35
2022-12-31T13:36:19.285Z,2.63
2022-12-31T13:38:51.352Z,3.45
2022-12-31T13:41:31.440Z,3.35
2022-12-31T13:44:23.768Z,3.25
2022-12-31T13:47:10.708Z,3.10
2022-12-31T13:49:40.730Z,3.33
2022-12-31T13:52:27.541Z,2.60
2022-12-31T13:55:23.836Z,2.95
2022-12-31T13:58:12.973Z,2.95
2022-12-31T14:00:46.527Z,3.67
2022-12-31T14:03:35.860Z,2.75
2022-12-31T14:06:18.248Z,2.92
2022-12-31T14:08:46.030Z,3.25
2022-12-31T14:11:25.067Z,2.95
2022-12-31T14:14:10.049Z,2.97
2022-12-31T14:16:42.908Z,3.33
2022-12-31T14:19:44.237Z,3.08
2022-12-31T14:22:17.103Z,3.38
2022-12-31T14:24:51.195Z,2.67
2022-12-31T14:27:36.869Z,2.65
2022-12-31T14:30:23.485Z,3.03
2022-12-31T14:32:59.757Z,2.70
2022-12-31T14:35:32.777Z,3.15
2022-12-31T14:38:19.733Z,3.30
2022-12-31T14:40:55.183Z,2.65
2022-12-31T14:43:27.935Z,2.53
2022-12-31T14:46:13.829Z,3.50
2022-12-31T14:49:01.045Z,2.63
2022-12-31T14:51:31.080Z,2.47
2022-12-31T14:53:59.074Z,2.88
2022-12-31T14:56:43.062Z,2.70
2022-12-31T14:59:26.703Z,2.50
2022-12-31T15:01:55.193Z,2.83
2022-12-31T15:04:45.031Z,2.60
2022-12-31T15:07:27.649Z,2.63
2022-12-31T15:10:06.582Z,3.08
2022-12-31T15:12:49.281Z,2.65
2022-12-31T15:15:51.416Z,2.58
2022-12-31T15:18:37.239Z,2.47
2022-12-31T15:21:21.031Z,2.88
2022-12-31T15:23:49.867Z,2.67
2022-12-31T15:26:27.854Z,2.83
2022-12-31T15:29:08.170Z,2.83
2022-12-31T15:31:36.513Z,2.58
2022-12-31T15:34:05.165Z,2.35
2022-12-31T15:36:39.008Z,2.58
2022-12-31T15:42:18.849Z,2.60
2022-12-31T15:44:56.695Z,2.78
2022-12-31T15:47:29.722Z,2.65
2022-12-31T15:50:18.847Z,2.55
2022-12-31T15:53:02.745Z,3.33
2022-12-31T15:55:38.725Z,2.95
2022-12-31T15:58:11.236Z,2.67
2022-12-31T16:01:21.844Z,2.83
2022-12-31T16:04:05.787Z,2.78
2022-12-31T16:06:39.188Z,2.78
2022-12-31T16:09:18.441Z,2.58
2022-12-31T16:11:45.701Z,3.13
2022-12-31T16:14:25.924Z,2.70
2022-12-31T16:16:57.929Z,2.90
2022-12-31T16:19:35.567Z,2.50
2022-12-31T16:22:09.177Z,2.28
2022-12-31T16:24:48.996Z,3.30
2022-12-31T16:27:25.335Z,2.63
2022-12-31T16:30:07.211Z,3.10
2022-12-31T16:32:38.994Z,3.13
2022-12-31T16:35:24.809Z,2.70
2022-12-31T16:38:17.130Z,2.72
2022-12-31T16:41:07.001Z,2.85
2022-12-31T16:43:38.877Z,3.28
2022-12-31T16:46:20.299Z,2.40
2022-12-31T16:48:59.928Z,2.88
2022-12-31T16:51:31.047Z,2.40
2022-12-31T16:53:59.014Z,2.83
2022-12-31T16:56:44.839Z,2.33
2022-12-31T16:59:44.311Z,3.28
2022-12-31T17:02:28.416Z,2.38
2022-12-31T17:04:56.560Z,2.97
2022-12-31T17:07:31.347Z,3.33
2022-12-31T17:10:15.767Z,3.15
2022-12-31T17:13:25.636Z,3.00
2022-12-31T17:15:42.993Z,2.67
2022-12-31T17:18:19.547Z,3.30
2022-12-31T17:20:47.551Z,3.25
2022-12-31T17:23:25.066Z,2.95
2022-12-31T17:26:00.118Z,2.88
2022-12-31T17:28:39.674Z,2.83
2022-12-31T17:31:34.157Z,2.53
2022-12-31T17:34:21.352Z,3.15
2022-12-31T17:36:57.041Z,2.95
2022-12-31T17:39:25.393Z,3.22
2022-12-31T17:41:55.929Z,2.80
2022-12-31T17:44:26.917Z,2.85
2022-12-31T17:46:54.241Z,3.15
2022-12-31T17:49:29.745Z,2.92
2022-12-31T17:51:56.780Z,3.00
2022-12-31T17:54:23.754Z,2.65
2022-12-31T17:56:52.556Z,3.08
2022-12-31T17:59:25.208Z,2.95
2022-12-31T18:01:52.492Z,2.67
2022-12-31T18:04:20.864Z,2.85
2022-12-31T18:06:47.937Z,2.92
2022-12-31T18:09:16.421Z,3.22
2022-12-31T18:11:43.839Z,2.85
2022-12-31T18:14:14.787Z,2.85
2022-12-31T18:16:42.174Z,2.90
2022-12-31T18:19:37.975Z,3.17
2022-12-31T18:22:02.701Z,2.80
2022-12-31T18:24:31.025Z,3.15
2022-12-31T18:26:58.062Z,2.50
2022-12-31T18:29:25.036Z,2.97
2022-12-31T18:31:52.403Z,2.63
2022-12-31T18:34:19.442Z,3.17
2022-12-31T18:36:46.777Z,3.25
2022-12-31T18:39:13.777Z,2.90
2022-12-31T18:41:49.648Z,3.28
2022-12-31T18:44:17.853Z,3.13
2022-12-31T18:46:44.833Z,3.75
2022-12-31T18:49:11.848Z,3.00
2022-12-31T18:51:38.789Z,3.13
2022-12-31T18:54:10.467Z,2.50
2022-12-31T18:56:41.812Z,2.70
2022-12-31T18:59:13.585Z,2.78
2022-12-31T19:01:41.360Z,2.85
2022-12-31T19:04:13.435Z,2.60
2022-12-31T19:06:40.603Z,2.80
2022-12-31T19:09:23.743Z,3.10
2022-12-31T19:11:54.635Z,3.35
2022-12-31T19:14:24.324Z,2.80
2022-12-31T19:16:52.411Z,3.22
2022-12-31T19:19:19.749Z,3.35
2022-12-31T19:21:47.506Z,2.90
2022-12-31T19:24:21.209Z,2.95
2022-12-31T19:26:51.099Z,3.13
2022-12-31T19:29:24.932Z,3.15
2022-12-31T19:31:52.079Z,3.13
2022-12-31T19:34:19.109Z,3.30
2022-12-31T19:36:46.333Z,3.28
2022-12-31T19:39:17.206Z,3.25
2022-12-31T19:41:45.152Z,2.92
2022-12-31T19:44:17.134Z,3.13
2022-12-31T19:46:44.491Z,2.92
2022-12-31T19:49:13.395Z,2.78
2022-12-31T19:51:41.250Z,3.60
2022-12-31T19:54:08.788Z,3.00
2022-12-31T19:56:36.007Z,2.95
2022-12-31T19:59:07.731Z,2.60
2022-12-31T20:01:34.870Z,2.95
2022-12-31T20:04:01.911Z,2.78
2022-12-31T20:06:29.032Z,3.03
2022-12-31T20:08:56.061Z,2.90
2022-12-31T20:11:24.446Z,2.90
2022-12-31T20:13:53.705Z,2.83
2022-12-31T20:16:23.485Z,2.50
2022-12-31T20:18:50.821Z,2.83
2022-12-31T20:21:23.827Z,2.40
2022-12-31T20:23:52.434Z,2.63
2022-12-31T20:26:20.510Z,2.95
2022-12-31T20:28:47.651Z,2.67
2022-12-31T20:31:17.760Z,3.40
2022-12-31T20:33:45.148Z,3.60
2022-12-31T20:36:14.667Z,2.40
2022-12-31T20:38:42.131Z,2.88
2022-12-31T20:41:14.642Z,2.70
2022-12-31T20:43:42.302Z,3.22
2022-12-31T20:46:15.729Z,2.78
2022-12-31T20:51:10.839Z,3.38
2022-12-31T20:53:37.879Z,2.47
2022-12-31T20:56:09.661Z,2.95
2022-12-31T20:58:36.939Z,3.05
2022-12-31T21:01:06.831Z,2.50
2022-12-31T21:04:04.281Z,2.63
2022-12-31T21:06:24.499Z,3.03
2022-12-31T21:08:51.569Z,2.42
2022-12-31T21:11:37.034Z,2.90
2022-12-31T21:14:04.110Z,3.17
2022-12-31T21:16:31.853Z,3.40
2022-12-31T21:18:58.874Z,2.60
2022-12-31T21:21:25.885Z,3.15
2022-12-31T21:23:53.192Z,3.17
2022-12-31T21:26:20.220Z,2.88
2022-12-31T21:28:47.199Z,3.10
2022-12-31T21:31:15.205Z,2.60
2022-12-31T21:33:46.747Z,2.95
2022-12-31T21:36:14.275Z,2.63
2022-12-31T21:38:41.607Z,3.25
2022-12-31T21:41:33.451Z,2.70
2022-12-31T21:44:01.804Z,2.60
2022-12-31T21:46:29.161Z,3.05
2022-12-31T21:48:58.049Z,3.05
2022-12-31T21:51:25.563Z,2.53
2022-12-31T21:53:52.599Z,2.90
2022-12-31T21:56:21.366Z,2.50
2022-12-31T21:59:16.459Z,2.63
2022-12-31T22:02:02.491Z,2.42
2022-12-31T22:05:17.542Z,2.70
2022-12-31T22:07:16.664Z,2.90
2022-12-31T22:09:43.720Z,2.40
2022-12-31T22:12:10.717Z,2.70
2022-12-31T22:14:37.671Z,2.47
2022-12-31T22:17:04.708Z,2.60
2022-12-31T22:19:33.620Z,2.55
2022-12-31T22:22:10.786Z,2.78
2022-12-31T22:24:37.697Z,2.83
2022-12-31T22:27:28.727Z,2.55
2022-12-31T22:29:51.808Z,2.90
2022-12-31T22:32:18.803Z,2.50
2022-12-31T22:34:45.816Z,2.72
2022-12-31T22:37:35.678Z,2.63
2022-12-31T22:39:59.850Z,2.67
2022-12-31T22:42:26.824Z,2.50
2022-12-31T22:44:53.841Z,2.55
2022-12-31T22:47:20.793Z,2.70
2022-12-31T22:49:47.808Z,2.70
2022-12-31T22:52:14.730Z,2.40
2022-12-31T22:54:41.762Z,2.45
2022-12-31T22:57:08.753Z,1.98
2022-12-31T22:59:35.785Z,2.60
2022-12-31T23:02:02.740Z,2.67
2022-12-31T23:04:29.918Z,2.80
2022-12-31T23:06:56.969Z,2.40
2022-12-31T23:09:42.642Z,2.63
2022-12-31T23:12:10.512Z,2.90
2022-12-31T23:14:56.334Z,2.72
2022-12-31T23:17:44.328Z,2.90
2022-12-31T23:20:32.849Z,3.60
2022-12-31T23:23:11.868Z,2.70
2022-12-31T23:25:43.285Z,3.10
2022-12-31T23:28:13.621Z,2.70
2022-12-31T23:30:42.078Z,2.45
2022-12-31T23:33:17.550Z,2.80
2022-12-31T23:35:44.935Z,2.92
2022-12-31T23:38:12.571Z,2.88
2022-12-31T23:40:39.598Z,2.85
2022-12-31T23:43:08.372Z,2.80
2022-12-31T23:45:36.136Z,2.80
2022-12-31T23:48:03.508Z,2.38
2022-12-31T23:50:30.510Z,3.20
2022-12-31T23:52:57.422Z,2.58
2022-12-31T23:55:24.482Z,2.58
2022-12-31T23:57:51.423Z,2.70
